createdAt,value
2022-12-16T00:00:48.971Z,44.09
2022-12-16T00:03:35.051Z,44.04
2022-12-16T00:06:22.580Z,44.12
2022-12-16T00:09:08.119Z,44.07
2022-12-16T00:11:53.850Z,44.19
2022-12-16T00:14:40.288Z,43.95
2022-12-16T00:17:25.542Z,43.99
2022-12-16T00:20:11.448Z,43.95
2022-12-16T00:22:57.234Z,43.96
2022-12-16T00:25:44.214Z,44.04
2022-12-16T00:28:29.484Z,44.02
2022-12-16T00:31:15.034Z,44.19
2022-12-16T00:34:00.483Z,44.12
2022-12-16T00:36:45.893Z,43.99
2022-12-16T00:39:31.222Z,43.79
2022-12-16T00:42:20.477Z,43.91
2022-12-16T00:45:06.319Z,43.91
2022-12-16T00:47:51.934Z,44.05
2022-12-16T00:50:37.306Z,44.04
2022-12-16T00:53:24.895Z,43.86
2022-12-16T00:56:14.562Z,43.99
2022-12-16T00:59:00.183Z,43.78
2022-12-16T01:01:45.691Z,43.73
2022-12-16T01:04:31.364Z,44.11
2022-12-16T01:07:16.699Z,44.04
2022-12-16T01:10:02.223Z,44.02
2022-12-16T01:12:47.667Z,44.05
2022-12-16T01:15:33.275Z,43.91
2022-12-16T01:18:19.048Z,43.94
2022-12-16T01:21:06.253Z,43.99
2022-12-16T01:23:52.764Z,44.03
2022-12-16T01:26:40.717Z,43.94
2022-12-16T01:29:25.940Z,44.11
2022-12-16T01:32:14.492Z,44.11
2022-12-16T01:34:59.693Z,44.22
2022-12-16T01:37:45.156Z,44.08
2022-12-16T01:40:31.016Z,44.04
2022-12-16T01:43:18.773Z,43.94
2022-12-16T01:46:07.270Z,43.88
2022-12-16T01:49:08.166Z,44.02
2022-12-16T01:51:56.368Z,44.11
2022-12-16T01:54:50.577Z,44.11
2022-12-16T01:57:42.092Z,44.02
2022-12-16T02:00:27.953Z,44.03
2022-12-16T02:03:13.646Z,43.85
2022-12-16T02:05:59.941Z,43.97
2022-12-16T02:08:45.249Z,43.89
2022-12-16T02:11:49.247Z,44.12
2022-12-16T02:14:41.509Z,44.15
2022-12-16T02:17:37.139Z,44.18
2022-12-16T02:20:51.649Z,44.03
2022-12-16T02:23:55.642Z,44.15
2022-12-16T02:27:33.010Z,44.00
2022-12-16T02:30:21.301Z,44.15
2022-12-16T02:33:27.613Z,44.11
2022-12-16T02:36:41.061Z,44.22
2022-12-16T02:39:47.612Z,44.23
2022-12-16T02:42:48.204Z,44.15
2022-12-16T02:45:35.298Z,44.10
2022-12-16T02:48:20.727Z,43.91
2022-12-16T02:51:06.582Z,44.17
2022-12-16T02:53:53.376Z,44.15
2022-12-16T02:57:08.586Z,44.23
2022-12-16T03:00:05.949Z,44.15
2022-12-16T03:03:18.613Z,44.17
2022-12-16T03:06:05.856Z,44.09
2022-12-16T03:08:57.112Z,44.37
2022-12-16T03:11:45.545Z,44.05
2022-12-16T03:14:34.524Z,44.13
2022-12-16T03:17:22.124Z,44.28
2022-12-16T03:20:12.637Z,44.08
2022-12-16T03:23:02.116Z,44.19
2022-12-16T03:25:50.901Z,44.27
2022-12-16T03:29:01.981Z,44.17
2022-12-16T03:32:03.273Z,44.38
2022-12-16T03:35:06.362Z,44.45
2022-12-16T03:37:55.570Z,44.48
2022-12-16T03:40:44.163Z,45.14
2022-12-16T03:43:30.241Z,45.57
2022-12-16T03:46:17.254Z,45.96
2022-12-16T03:49:02.785Z,46.30
2022-12-16T03:51:48.365Z,46.61
2022-12-16T03:54:33.725Z,46.72
2022-12-16T03:57:19.361Z,46.00
2022-12-16T04:00:05.952Z,45.68
2022-12-16T04:02:57.663Z,45.09
2022-12-16T04:05:43.024Z,46.00
2022-12-16T04:08:28.424Z,46.36
2022-12-16T04:11:33.189Z,46.48
2022-12-16T04:14:37.002Z,46.31
2022-12-16T04:17:40.780Z,45.62
2022-12-16T04:20:50.306Z,45.52
2022-12-16T04:24:01.205Z,46.02
2022-12-16T04:27:15.050Z,46.02
2022-12-16T04:30:19.050Z,45.67
2022-12-16T04:33:29.715Z,45.57
2022-12-16T04:36:33.745Z,45.76
2022-12-16T04:39:37.722Z,45.67
2022-12-16T04:42:41.632Z,45.42
2022-12-16T04:45:45.525Z,45.42
2022-12-16T04:48:49.435Z,45.40
2022-12-16T04:51:53.374Z,45.48
2022-12-16T04:54:57.537Z,45.78
2022-12-16T04:58:10.921Z,46.58
2022-12-16T05:01:14.832Z,46.58
2022-12-16T05:04:18.614Z,48.00
2022-12-16T05:07:22.605Z,48.38
2022-12-16T05:10:27.301Z,48.84
2022-12-16T05:13:31.747Z,48.82
2022-12-16T05:16:36.024Z,48.67
2022-12-16T05:19:40.298Z,48.72
2022-12-16T05:22:44.284Z,47.57
2022-12-16T05:25:48.378Z,46.98
2022-12-16T05:28:53.804Z,47.67
2022-12-16T05:31:57.681Z,47.78
2022-12-16T05:35:01.401Z,47.96
2022-12-16T05:38:05.230Z,48.40
2022-12-16T05:41:09.008Z,48.12
2022-12-16T05:44:12.763Z,47.87
2022-12-16T05:47:16.538Z,48.07
2022-12-16T05:50:20.461Z,47.60
2022-12-16T05:53:24.261Z,47.40
2022-12-16T05:56:28.055Z,47.21
2022-12-16T05:59:32.048Z,47.19
2022-12-16T06:02:36.073Z,47.03
2022-12-16T06:05:40.372Z,46.79
2022-12-16T06:08:44.163Z,46.06
2022-12-16T06:11:48.188Z,45.67
2022-12-16T06:14:52.090Z,45.75
2022-12-16T06:17:56.045Z,45.86
2022-12-16T06:20:59.730Z,45.47
2022-12-16T06:24:03.427Z,45.19
2022-12-16T06:27:07.476Z,45.01
2022-12-16T06:30:11.399Z,44.85
2022-12-16T06:33:15.201Z,44.86
2022-12-16T06:36:18.991Z,44.75
2022-12-16T06:39:22.814Z,44.59
2022-12-16T06:42:26.611Z,44.55
2022-12-16T06:45:34.671Z,44.56
2022-12-16T06:48:39.106Z,44.45
2022-12-16T06:51:42.933Z,44.57
2022-12-16T06:54:46.733Z,44.30
2022-12-16T06:57:50.648Z,44.52
2022-12-16T07:00:54.642Z,44.41
2022-12-16T07:03:59.540Z,44.26
2022-12-16T07:07:03.260Z,44.41
2022-12-16T07:10:07.144Z,44.27
2022-12-16T07:13:11.130Z,44.18
2022-12-16T07:16:15.213Z,44.34
2022-12-16T07:19:18.874Z,44.10
2022-12-16T07:22:22.635Z,44.42
2022-12-16T07:25:26.384Z,44.27
2022-12-16T07:28:30.359Z,44.03
2022-12-16T07:31:34.221Z,44.15
2022-12-16T07:34:42.028Z,44.00
2022-12-16T07:37:47.871Z,43.92
2022-12-16T07:40:51.876Z,43.94
2022-12-16T07:43:55.708Z,44.26
2022-12-16T07:46:59.498Z,43.98
2022-12-16T07:50:03.349Z,43.77
2022-12-16T07:53:12.531Z,43.99
2022-12-16T07:56:16.495Z,43.82
2022-12-16T07:59:20.359Z,43.93
2022-12-16T08:02:24.696Z,43.93
2022-12-16T08:05:28.928Z,43.91
2022-12-16T08:08:32.756Z,43.91
2022-12-16T08:11:36.647Z,44.06
2022-12-16T08:14:40.383Z,43.75
2022-12-16T08:17:48.740Z,44.03
2022-12-16T08:20:53.053Z,43.72
2022-12-16T08:23:58.713Z,43.68
2022-12-16T08:27:02.477Z,43.53
2022-12-16T08:30:06.409Z,43.61
2022-12-16T08:33:18.502Z,43.76
2022-12-16T08:36:24.119Z,43.77
2022-12-16T08:39:27.934Z,43.53
2022-12-16T08:42:31.764Z,43.64
2022-12-16T08:45:35.930Z,43.58
2022-12-16T08:48:39.940Z,43.42
2022-12-16T08:51:43.634Z,43.42
2022-12-16T08:54:47.633Z,43.26
2022-12-16T08:57:51.542Z,43.43
2022-12-16T09:00:55.594Z,43.53
2022-12-16T09:03:59.928Z,43.63
2022-12-16T09:07:04.086Z,43.48
2022-12-16T09:10:07.951Z,43.44
2022-12-16T09:13:12.831Z,43.29
2022-12-16T09:16:19.494Z,43.22
2022-12-16T09:19:23.697Z,43.02
2022-12-16T09:22:27.603Z,43.15
2022-12-16T09:25:31.572Z,43.30
2022-12-16T09:28:35.448Z,42.94
2022-12-16T09:31:39.541Z,43.03
2022-12-16T09:34:43.191Z,42.95
2022-12-16T09:37:47.184Z,42.94
2022-12-16T09:40:50.953Z,43.10
2022-12-16T09:44:01.434Z,42.92
2022-12-16T09:47:35.579Z,42.81
2022-12-16T09:50:44.458Z,43.22
2022-12-16T09:53:55.474Z,43.18
2022-12-16T09:57:02.057Z,43.01
2022-12-16T10:00:16.071Z,43.09
2022-12-16T10:03:31.767Z,43.00
2022-12-16T10:06:54.550Z,42.96
2022-12-16T10:10:15.467Z,42.95
2022-12-16T10:13:28.361Z,42.99
2022-12-16T10:16:58.651Z,42.97
2022-12-16T10:20:22.057Z,42.94
2022-12-16T10:23:48.100Z,43.17
2022-12-16T10:27:19.869Z,42.82
2022-12-16T10:30:31.528Z,42.70
2022-12-16T10:33:37.599Z,42.89
2022-12-16T10:36:43.398Z,42.69
2022-12-16T10:39:51.119Z,42.94
2022-12-16T10:43:05.781Z,42.84
2022-12-16T10:46:12.458Z,42.79
2022-12-16T10:49:16.396Z,43.20
2022-12-16T10:52:20.707Z,43.18
2022-12-16T10:55:52.733Z,43.05
2022-12-16T10:59:10.156Z,43.10
2022-12-16T11:02:41.509Z,43.04
2022-12-16T11:05:53.950Z,42.95
2022-12-16T11:08:59.821Z,42.79
2022-12-16T11:12:03.719Z,42.81
2022-12-16T11:18:38.162Z,42.90
2022-12-16T11:21:41.977Z,42.82
2022-12-16T11:24:46.783Z,43.19
2022-12-16T11:27:50.720Z,43.09
2022-12-16T11:30:55.088Z,43.13
2022-12-16T11:34:00.894Z,43.37
2022-12-16T11:37:10.353Z,43.09
2022-12-16T11:40:15.065Z,43.02
2022-12-16T11:43:22.436Z,43.52
2022-12-16T11:46:31.755Z,43.69
2022-12-16T11:49:50.994Z,43.84
2022-12-16T11:52:55.257Z,44.00
2022-12-16T11:56:11.170Z,43.85
2022-12-16T11:59:25.554Z,43.74
2022-12-16T12:02:56.116Z,43.68
2022-12-16T12:06:14.461Z,43.71
2022-12-16T12:09:29.695Z,43.68
2022-12-16T12:13:06.626Z,43.53
2022-12-16T12:16:41.429Z,43.43
2022-12-16T12:20:25.781Z,43.55
2022-12-16T12:23:30.594Z,43.55
2022-12-16T12:32:35.584Z,43.48
2022-12-16T12:36:13.472Z,43.47
2022-12-16T12:39:28.757Z,43.55
2022-12-16T12:42:48.740Z,43.49
2022-12-16T12:46:38.159Z,43.87
2022-12-16T12:49:53.276Z,43.75
2022-12-16T12:53:16.530Z,43.94
2022-12-16T12:56:46.966Z,43.87
2022-12-16T13:00:19.491Z,44.10
2022-12-16T13:04:02.403Z,44.14
2022-12-16T13:07:07.351Z,43.98
2022-12-16T13:10:48.740Z,44.32
2022-12-16T13:13:55.537Z,44.65
2022-12-16T13:17:02.719Z,45.05
2022-12-16T13:20:16.273Z,45.85
2022-12-16T13:23:42.651Z,45.48
2022-12-16T13:26:49.469Z,45.75
2022-12-16T13:29:53.419Z,45.33
2022-12-16T13:32:57.241Z,45.83
2022-12-16T13:36:18.101Z,45.60
2022-12-16T13:39:59.493Z,45.51
2022-12-16T13:43:03.104Z,45.54
2022-12-16T13:46:33.399Z,45.52
2022-12-16T13:50:00.408Z,45.27
2022-12-16T13:53:14.844Z,45.14
2022-12-16T13:56:19.689Z,45.33
2022-12-16T13:59:29.948Z,45.47
2022-12-16T14:02:38.907Z,45.02
2022-12-16T14:05:47.568Z,44.97
2022-12-16T14:08:56.571Z,45.11
2022-12-16T14:12:16.119Z,45.22
2022-12-16T14:15:30.017Z,45.00
2022-12-16T14:18:48.558Z,45.04
2022-12-16T14:22:07.688Z,45.00
2022-12-16T14:25:12.464Z,44.91
2022-12-16T14:28:17.381Z,45.00
2022-12-16T14:31:24.243Z,44.74
2022-12-16T14:34:38.569Z,44.84
2022-12-16T14:37:48.662Z,44.60
2022-12-16T14:40:52.478Z,44.73
2022-12-16T14:44:01.661Z,44.75
2022-12-16T14:47:10.438Z,44.89
2022-12-16T14:50:14.549Z,44.63
2022-12-16T14:53:38.547Z,44.34
2022-12-16T14:56:42.274Z,44.57
2022-12-16T14:59:46.534Z,44.94
2022-12-16T15:03:02.674Z,44.81
2022-12-16T15:06:07.572Z,45.06
2022-12-16T15:09:16.748Z,44.84
2022-12-16T15:12:21.133Z,44.73
2022-12-16T15:15:32.919Z,44.65
2022-12-16T15:18:52.313Z,44.71
2022-12-16T15:21:56.950Z,44.76
2022-12-16T15:25:02.653Z,44.91
2022-12-16T15:28:14.396Z,45.07
2022-12-16T15:31:32.043Z,44.80
2022-12-16T15:34:49.175Z,44.92
2022-12-16T15:38:03.860Z,46.23
2022-12-16T15:41:09.880Z,47.12
2022-12-16T15:44:28.207Z,47.76
2022-12-16T15:47:59.156Z,47.99
2022-12-16T15:51:12.144Z,47.85
2022-12-16T15:54:22.944Z,47.69
2022-12-16T15:57:51.407Z,47.45
2022-12-16T16:00:55.113Z,47.43
2022-12-16T16:04:08.397Z,47.25
2022-12-16T16:07:12.242Z,47.13
2022-12-16T16:10:24.494Z,46.74
2022-12-16T16:13:29.070Z,46.35
2022-12-16T16:16:34.124Z,46.09
2022-12-16T16:19:45.016Z,46.45
2022-12-16T16:22:48.912Z,45.90
2022-12-16T16:25:52.837Z,46.13
2022-12-16T16:28:57.015Z,45.85
2022-12-16T16:32:04.145Z,45.22
2022-12-16T16:35:09.100Z,44.50
2022-12-16T16:38:18.354Z,44.22
2022-12-16T16:41:22.586Z,44.26
2022-12-16T16:44:26.522Z,44.13
2022-12-16T16:47:35.354Z,43.98
2022-12-16T16:50:39.150Z,43.72
2022-12-16T16:53:42.899Z,43.56
2022-12-16T16:56:47.588Z,43.71
2022-12-16T16:59:51.153Z,43.86
2022-12-16T17:02:55.188Z,43.69
2022-12-16T17:05:59.460Z,43.55
2022-12-16T17:09:03.298Z,43.61
2022-12-16T17:12:06.982Z,43.63
2022-12-16T17:15:10.861Z,43.68
2022-12-16T17:18:14.827Z,44.17
2022-12-16T17:21:18.703Z,44.37
2022-12-16T17:24:22.546Z,44.69
2022-12-16T17:27:36.185Z,44.71
2022-12-16T17:30:46.930Z,44.77
2022-12-16T17:33:51.483Z,44.87
2022-12-16T17:36:55.229Z,45.13
2022-12-16T17:39:59.169Z,45.19
2022-12-16T17:43:03.229Z,45.03
2022-12-16T17:46:22.386Z,44.97
2022-12-16T17:49:28.669Z,44.73
2022-12-16T17:52:32.446Z,44.68
2022-12-16T17:55:36.311Z,44.60
2022-12-16T17:58:40.267Z,44.80
2022-12-16T18:01:44.253Z,44.81
2022-12-16T18:04:48.283Z,44.75
2022-12-16T18:07:52.277Z,44.79
2022-12-16T18:10:56.182Z,44.72
2022-12-16T18:14:00.202Z,44.65
2022-12-16T18:17:04.139Z,45.00
2022-12-16T18:20:07.983Z,44.95
2022-12-16T18:23:12.780Z,45.18
2022-12-16T18:26:24.319Z,45.42
2022-12-16T18:29:28.096Z,45.12
2022-12-16T18:32:35.329Z,44.94
2022-12-16T18:35:43.056Z,44.85
2022-12-16T18:38:46.960Z,44.84
2022-12-16T18:41:51.551Z,44.72
2022-12-16T18:45:00.892Z,45.18
2022-12-16T18:48:05.464Z,45.35
2022-12-16T18:51:17.382Z,45.19
2022-12-16T18:54:35.385Z,44.95
2022-12-16T18:57:40.198Z,44.88
2022-12-16T19:00:43.894Z,44.66
2022-12-16T19:03:47.903Z,44.68
2022-12-16T19:06:52.910Z,44.39
2022-12-16T19:09:57.120Z,44.68
2022-12-16T19:13:01.537Z,44.48
2022-12-16T19:16:15.717Z,44.71
2022-12-16T19:19:20.351Z,44.35
2022-12-16T19:22:24.708Z,44.60
2022-12-16T19:25:48.355Z,44.61
2022-12-16T19:28:53.429Z,44.69
2022-12-16T19:32:00.501Z,44.94
2022-12-16T19:35:04.843Z,44.97
2022-12-16T19:38:08.571Z,44.70
2022-12-16T19:41:14.019Z,44.41
2022-12-16T19:44:21.500Z,44.31
2022-12-16T19:47:25.631Z,44.03
2022-12-16T19:50:30.421Z,43.60
2022-12-16T19:53:34.484Z,43.75
2022-12-16T19:56:39.126Z,43.91
2022-12-16T19:59:43.598Z,43.33
2022-12-16T20:02:47.620Z,43.54
2022-12-16T20:05:52.008Z,43.35
2022-12-16T20:08:55.766Z,44.07
2022-12-16T20:12:02.179Z,43.43
2022-12-16T20:15:09.238Z,43.67
2022-12-16T20:18:13.197Z,43.59
2022-12-16T20:21:21.593Z,43.71
2022-12-16T20:24:28.797Z,43.84
2022-12-16T20:27:32.550Z,44.08
2022-12-16T20:30:36.662Z,44.33
2022-12-16T20:33:41.222Z,44.77
2022-12-16T20:36:45.453Z,44.51
2022-12-16T20:39:56.349Z,44.64
2022-12-16T20:43:00.876Z,44.79
2022-12-16T20:46:06.355Z,44.82
2022-12-16T20:49:10.352Z,45.08
2022-12-16T20:52:14.352Z,45.08
2022-12-16T20:55:18.211Z,45.17
2022-12-16T20:58:22.116Z,45.21
2022-12-16T21:01:26.104Z,45.19
2022-12-16T21:04:29.906Z,45.31
2022-12-16T21:07:33.833Z,45.42
2022-12-16T21:10:37.725Z,45.63
2022-12-16T21:13:41.507Z,45.89
2022-12-16T21:16:45.344Z,46.03
2022-12-16T21:19:49.181Z,46.16
2022-12-16T21:22:53.149Z,46.04
2022-12-16T21:25:57.005Z,46.13
2022-12-16T21:29:00.830Z,46.26
2022-12-16T21:32:04.712Z,46.14
2022-12-16T21:35:08.394Z,46.28
2022-12-16T21:38:13.463Z,46.17
2022-12-16T21:41:17.452Z,46.17
2022-12-16T21:44:21.230Z,46.25
2022-12-16T21:47:25.070Z,46.19
2022-12-16T21:50:28.772Z,46.16
2022-12-16T21:53:32.657Z,46.21
2022-12-16T21:56:36.560Z,46.20
2022-12-16T21:59:40.412Z,46.35
2022-12-16T22:02:44.180Z,46.29
2022-12-16T22:05:48.246Z,46.57
2022-12-16T22:08:59.667Z,46.35
2022-12-16T22:12:03.794Z,46.28
2022-12-16T22:15:07.503Z,46.56
2022-12-16T22:18:11.326Z,46.57
2022-12-16T22:21:20.815Z,46.73
2022-12-16T22:24:24.459Z,46.72
2022-12-16T22:27:28.314Z,46.67
2022-12-16T22:30:32.152Z,46.72
2022-12-16T22:33:35.703Z,46.78
2022-12-16T22:36:39.593Z,46.76
2022-12-16T22:39:45.062Z,46.70
2022-12-16T22:42:49.209Z,46.69
2022-12-16T22:45:53.316Z,46.78
2022-12-16T22:49:00.191Z,46.76
2022-12-16T22:52:04.111Z,46.79
2022-12-16T22:55:08.002Z,46.61
2022-12-16T22:58:11.869Z,46.82
2022-12-16T23:01:16.545Z,46.52
2022-12-16T23:04:20.541Z,46.80
2022-12-16T23:07:24.102Z,46.88
2022-12-16T23:10:28.094Z,46.95
2022-12-16T23:13:32.337Z,46.86
2022-12-16T23:16:36.304Z,46.96
2022-12-16T23:19:40.008Z,46.74
2022-12-16T23:22:43.901Z,47.07
2022-12-16T23:25:47.734Z,46.95
2022-12-16T23:29:11.404Z,47.12
2022-12-16T23:32:15.483Z,47.08
2022-12-16T23:35:19.854Z,46.95
2022-12-16T23:38:25.298Z,47.01
2022-12-16T23:41:29.017Z,47.03
2022-12-16T23:44:32.948Z,46.90
2022-12-16T23:47:36.994Z,47.03
2022-12-16T23:50:40.958Z,47.10
2022-12-16T23:53:44.686Z,46.92
2022-12-16T23:56:48.532Z,47.05
2022-12-16T23:59:52.464Z,46.73
